createdAt,value
2023-11-12T00:00:17.925Z,100.00
2023-11-12T00:02:45.537Z,100.00
2023-11-12T00:05:14.646Z,100.00
2023-11-12T00:07:42.344Z,100.00
2023-11-12T00:10:13.196Z,100.00
2023-11-12T00:12:41.056Z,100.00
2023-11-12T00:15:09.654Z,100.00
2023-11-12T00:17:38.617Z,100.00
2023-11-12T00:20:08.030Z,100.00
2023-11-12T00:22:37.029Z,100.00
2023-11-12T00:25:04.920Z,100.00
2023-11-12T00:27:32.564Z,100.00
2023-11-12T00:30:00.254Z,100.00
2023-11-12T00:32:29.383Z,100.00
2023-11-12T00:34:57.254Z,100.00
2023-11-12T00:37:24.901Z,100.00
2023-11-12T00:39:53.929Z,100.00
2023-11-12T00:42:21.521Z,100.00
2023-11-12T00:44:49.109Z,100.00
2023-11-12T00:47:17.316Z,100.00
2023-11-12T00:49:44.968Z,100.00
2023-11-12T00:52:12.657Z,100.00
2023-11-12T00:54:40.762Z,100.00
2023-11-12T00:57:09.704Z,100.00
2023-11-12T00:59:37.427Z,100.00
2023-11-12T01:02:05.637Z,100.00
2023-11-12T01:04:33.788Z,100.00
2023-11-12T01:07:01.361Z,100.00
2023-11-12T01:09:29.436Z,100.00
2023-11-12T01:11:57.289Z,100.00
2023-11-12T01:14:26.433Z,100.00
2023-11-12T01:16:56.258Z,100.00
2023-11-12T01:19:24.023Z,100.00
2023-11-12T01:21:51.746Z,100.00
2023-11-12T01:24:20.763Z,100.00
2023-11-12T01:26:48.411Z,100.00
2023-11-12T01:29:16.180Z,100.00
2023-11-12T01:31:46.401Z,100.00
2023-11-12T01:34:15.197Z,100.00
2023-11-12T01:36:42.802Z,100.00
2023-11-12T01:39:10.529Z,100.00
2023-11-12T01:41:38.279Z,100.00
2023-11-12T01:44:06.022Z,100.00
2023-11-12T01:46:35.622Z,100.00
2023-11-12T01:49:06.102Z,100.00
2023-11-12T01:51:35.502Z,100.00
2023-11-12T01:54:03.824Z,100.00
2023-11-12T01:56:33.457Z,100.00
2023-11-12T01:59:02.297Z,100.00
2023-11-12T02:01:29.962Z,100.00
2023-11-12T02:03:58.235Z,100.00
2023-11-12T02:06:27.576Z,100.00
2023-11-12T02:08:56.593Z,100.00
2023-11-12T02:11:25.004Z,100.00
2023-11-12T02:13:54.678Z,100.00
2023-11-12T02:16:23.139Z,100.00
2023-11-12T02:18:50.869Z,100.00
2023-11-12T02:21:24.141Z,100.00
2023-11-12T02:23:53.275Z,100.00
2023-11-12T02:26:21.069Z,100.00
2023-11-12T02:28:49.169Z,100.00
2023-11-12T02:31:17.650Z,100.00
2023-11-12T02:33:45.744Z,100.00
2023-11-12T02:36:14.933Z,100.00
2023-11-12T02:38:42.555Z,100.00
2023-11-12T02:41:12.771Z,100.00
2023-11-12T02:43:41.310Z,100.00
2023-11-12T02:46:10.124Z,100.00
2023-11-12T02:48:51.402Z,100.00
2023-11-12T02:51:19.501Z,100.00
2023-11-12T02:53:47.174Z,100.00
2023-11-12T02:56:17.724Z,100.00
2023-11-12T02:58:45.398Z,100.00
2023-11-12T03:01:13.035Z,100.00
2023-11-12T03:03:40.789Z,100.00
2023-11-12T03:06:08.535Z,100.00
2023-11-12T03:08:36.164Z,100.00
2023-11-12T03:11:03.898Z,100.00
2023-11-12T03:13:32.935Z,100.00
2023-11-12T03:16:00.608Z,100.00
2023-11-12T03:18:28.271Z,100.00
2023-11-12T03:20:56.045Z,100.00
2023-11-12T03:23:23.624Z,100.00
2023-11-12T03:25:51.214Z,100.00
2023-11-12T03:28:18.997Z,100.00
2023-11-12T03:30:48.065Z,100.00
2023-11-12T03:33:15.859Z,100.00
2023-11-12T03:35:43.634Z,100.00
2023-11-12T03:38:11.569Z,100.00
2023-11-12T03:40:39.169Z,100.00
2023-11-12T03:43:07.153Z,100.00
2023-11-12T03:45:34.836Z,100.00
2023-11-12T03:48:03.847Z,100.00
2023-11-12T03:50:31.506Z,100.00
2023-11-12T03:52:59.088Z,100.00
2023-11-12T03:55:26.747Z,100.00
2023-11-12T03:57:54.448Z,100.00
2023-11-12T04:00:22.288Z,100.00
2023-11-12T04:02:50.020Z,100.00
2023-11-12T04:05:19.177Z,100.00
2023-11-12T04:07:47.148Z,100.00
2023-11-12T04:10:14.888Z,100.00
2023-11-12T04:12:42.556Z,100.00
2023-11-12T04:15:10.665Z,100.00
2023-11-12T04:17:38.532Z,100.00
2023-11-12T04:20:09.696Z,100.00
2023-11-12T04:22:42.450Z,100.00
2023-11-12T04:25:12.385Z,100.00
2023-11-12T04:27:39.987Z,100.00
2023-11-12T04:30:10.515Z,100.00
2023-11-12T04:32:39.821Z,100.00
2023-11-12T04:35:08.397Z,100.00
2023-11-12T04:37:37.034Z,100.00
2023-11-12T04:40:07.438Z,100.00
2023-11-12T04:42:35.137Z,100.00
2023-11-12T04:45:03.729Z,100.00
2023-11-12T04:47:31.724Z,100.00
2023-11-12T04:50:00.240Z,100.00
2023-11-12T04:52:27.868Z,100.00
2023-11-12T04:54:55.536Z,100.00
2023-11-12T04:57:24.687Z,100.00
2023-11-12T04:59:52.870Z,100.00
2023-11-12T05:02:21.056Z,100.00
2023-11-12T05:04:48.662Z,100.00
2023-11-12T05:07:16.357Z,100.00
2023-11-12T05:09:44.088Z,100.00
2023-11-12T05:12:11.729Z,100.00
2023-11-12T05:14:40.888Z,100.00
2023-11-12T05:17:08.533Z,100.00
2023-11-12T05:19:37.186Z,100.00
2023-11-12T05:22:04.920Z,100.00
2023-11-12T05:24:32.536Z,100.00
2023-11-12T05:27:00.206Z,100.00
2023-11-12T05:29:27.837Z,100.00
2023-11-12T05:31:57.486Z,100.00
2023-11-12T05:34:25.275Z,100.00
2023-11-12T05:36:53.384Z,100.00
2023-11-12T05:39:21.649Z,100.00
2023-11-12T05:41:49.282Z,100.00
2023-11-12T05:44:16.873Z,100.00
2023-11-12T05:46:44.484Z,100.00
2023-11-12T05:49:13.398Z,100.00
2023-11-12T05:51:41.062Z,100.00
2023-11-12T05:54:08.851Z,100.00
2023-11-12T05:56:36.556Z,100.00
2023-11-12T05:59:04.188Z,100.00
2023-11-12T06:01:31.973Z,100.00
2023-11-12T06:04:01.297Z,100.00
2023-11-12T06:06:30.374Z,100.00
2023-11-12T06:08:58.828Z,100.00
2023-11-12T06:11:27.078Z,100.00
2023-11-12T06:13:54.654Z,100.00
2023-11-12T06:16:22.514Z,100.00
2023-11-12T06:18:50.646Z,100.00
2023-11-12T06:21:18.342Z,100.00
2023-11-12T06:23:47.388Z,100.00
2023-11-12T06:26:15.064Z,100.00
2023-11-12T06:28:42.626Z,100.00
2023-11-12T06:31:10.369Z,100.00
2023-11-12T06:33:38.280Z,100.00
2023-11-12T06:36:06.962Z,100.00
2023-11-12T06:38:34.506Z,100.00
2023-11-12T06:41:03.484Z,100.00
2023-11-12T06:43:31.114Z,100.00
2023-11-12T06:45:58.713Z,100.00
2023-11-12T06:48:26.555Z,100.00
2023-11-12T06:50:54.153Z,100.00
2023-11-12T06:53:21.742Z,100.00
2023-11-12T06:55:49.358Z,100.00
2023-11-12T06:58:18.321Z,100.00
2023-11-12T07:00:46.863Z,100.00
2023-11-12T07:03:14.643Z,100.00
2023-11-12T07:05:42.864Z,100.00
2023-11-12T07:08:10.505Z,100.00
2023-11-12T07:10:39.100Z,100.00
2023-11-12T07:13:06.812Z,100.00
2023-11-12T07:15:35.837Z,100.00
2023-11-12T07:18:03.511Z,100.00
2023-11-12T07:20:33.672Z,100.00
2023-11-12T07:23:01.975Z,100.00
2023-11-12T07:25:29.671Z,100.00
2023-11-12T07:27:57.314Z,100.00
2023-11-12T07:30:25.153Z,100.00
2023-11-12T07:32:54.193Z,100.00
2023-11-12T07:35:21.798Z,100.00
2023-11-12T07:37:49.485Z,100.00
2023-11-12T07:40:19.060Z,100.00
2023-11-12T07:42:46.726Z,100.00
2023-11-12T07:45:21.009Z,100.00
2023-11-12T07:47:51.035Z,100.00
2023-11-12T07:50:19.945Z,100.00
2023-11-12T07:52:47.780Z,100.00
2023-11-12T07:55:15.462Z,100.00
2023-11-12T07:57:43.641Z,100.00
2023-11-12T08:00:14.266Z,100.00
2023-11-12T08:02:42.163Z,100.00
2023-11-12T08:05:11.145Z,100.00
2023-11-12T08:07:40.986Z,100.00
2023-11-12T08:10:09.589Z,100.00
2023-11-12T08:12:37.421Z,100.00
2023-11-12T08:15:06.480Z,100.00
2023-11-12T08:17:34.394Z,100.00
2023-11-12T08:20:02.020Z,100.00
2023-11-12T08:22:29.601Z,100.00
2023-11-12T08:24:58.616Z,100.00
2023-11-12T08:27:26.273Z,100.00
2023-11-12T08:29:53.980Z,100.00
2023-11-12T08:32:21.577Z,100.00
2023-11-12T08:34:49.171Z,100.00
2023-11-12T08:37:16.978Z,100.00
2023-11-12T08:39:44.722Z,100.00
2023-11-12T08:42:14.094Z,100.00
2023-11-12T08:44:41.789Z,100.00
2023-11-12T08:47:09.554Z,100.00
2023-11-12T08:49:37.263Z,100.00
2023-11-12T08:52:05.384Z,100.00
2023-11-12T08:54:33.206Z,100.00
2023-11-12T08:57:02.996Z,100.00
2023-11-12T08:59:33.311Z,100.00
2023-11-12T09:02:01.086Z,100.00
2023-11-12T09:04:28.996Z,100.00
2023-11-12T09:06:56.892Z,100.00
2023-11-12T09:09:24.492Z,99.54
2023-11-12T09:11:52.511Z,97.79
2023-11-12T09:14:22.363Z,96.24
2023-11-12T09:16:51.387Z,95.50
2023-11-12T09:19:19.123Z,95.70
2023-11-12T09:21:46.838Z,95.65
2023-11-12T09:24:15.257Z,94.52
2023-11-12T09:26:42.940Z,93.36
2023-11-12T09:29:10.516Z,93.00
2023-11-12T09:31:38.127Z,93.17
2023-11-12T09:34:07.579Z,90.28
2023-11-12T09:36:35.388Z,92.54
2023-11-12T09:39:04.711Z,86.40
2023-11-12T09:41:34.308Z,87.23
2023-11-12T09:44:04.912Z,84.82
2023-11-12T09:46:33.513Z,82.19
2023-11-12T09:49:01.582Z,82.69
2023-11-12T09:51:30.754Z,80.35
2023-11-12T09:54:00.070Z,82.72
2023-11-12T09:56:27.704Z,83.68
2023-11-12T09:58:55.936Z,84.27
2023-11-12T10:01:24.552Z,84.29
2023-11-12T10:03:53.104Z,83.97
2023-11-12T10:06:23.308Z,84.20
2023-11-12T10:08:52.556Z,84.67
2023-11-12T10:11:22.534Z,84.11
2023-11-12T10:13:52.069Z,82.05
2023-11-12T10:16:23.104Z,79.94
2023-11-12T10:18:51.643Z,80.17
2023-11-12T10:21:20.512Z,79.08
2023-11-12T10:23:48.112Z,77.71
2023-11-12T10:26:17.309Z,77.82
2023-11-12T10:28:45.074Z,78.27
2023-11-12T10:31:15.330Z,80.54
2023-11-12T10:33:43.841Z,80.49
2023-11-12T10:36:14.345Z,82.06
2023-11-12T10:38:48.315Z,82.06
2023-11-12T10:41:17.479Z,81.73
2023-11-12T10:43:58.521Z,81.32
2023-11-12T10:46:27.506Z,81.37
2023-11-12T10:48:56.657Z,81.22
2023-11-12T10:51:26.281Z,82.63
2023-11-12T10:53:57.594Z,82.71
2023-11-12T10:56:26.666Z,82.30
2023-11-12T10:58:55.353Z,82.67
2023-11-12T11:01:24.307Z,82.28
2023-11-12T11:03:52.774Z,81.36
2023-11-12T11:06:20.693Z,82.15
2023-11-12T11:08:48.273Z,83.07
2023-11-12T11:11:16.171Z,82.73
2023-11-12T11:13:47.109Z,82.46
2023-11-12T11:16:46.905Z,82.27
2023-11-12T11:19:14.718Z,81.91
2023-11-12T11:21:43.148Z,79.49
2023-11-12T11:24:44.965Z,79.46
2023-11-12T11:27:13.863Z,80.47
2023-11-12T11:30:07.082Z,81.73
2023-11-12T11:32:34.909Z,81.31
2023-11-12T11:35:08.107Z,80.27
2023-11-12T11:38:10.730Z,78.42
2023-11-12T11:40:39.534Z,78.19
2023-11-12T11:43:35.089Z,76.57
2023-11-12T11:46:12.144Z,77.00
2023-11-12T11:49:13.262Z,78.09
2023-11-12T11:51:49.684Z,77.69
2023-11-12T11:54:17.650Z,76.01
2023-11-12T11:56:45.395Z,76.11
2023-11-12T11:59:13.778Z,76.73
2023-11-12T12:01:49.270Z,75.00
2023-11-12T12:04:17.737Z,75.74
2023-11-12T12:06:47.446Z,74.78
2023-11-12T12:09:18.933Z,76.32
2023-11-12T12:11:48.212Z,77.48
2023-11-12T12:14:16.987Z,78.42
2023-11-12T12:16:46.475Z,80.88
2023-11-12T12:19:19.920Z,81.67
2023-11-12T12:21:49.939Z,82.39
2023-11-12T12:24:18.860Z,82.28
2023-11-12T12:26:46.767Z,82.03
2023-11-12T12:29:19.677Z,82.55
2023-11-12T12:31:49.419Z,81.48
2023-11-12T12:34:20.398Z,81.15
2023-11-12T12:37:06.261Z,80.98
2023-11-12T12:39:51.341Z,81.38
2023-11-12T12:42:20.285Z,80.66
2023-11-12T12:44:50.091Z,80.12
2023-11-12T12:47:31.574Z,81.71
2023-11-12T12:50:00.690Z,80.01
2023-11-12T12:52:28.824Z,80.75
2023-11-12T12:54:56.541Z,81.33
2023-11-12T12:57:25.314Z,80.20
2023-11-12T12:59:52.944Z,81.86
2023-11-12T13:02:21.047Z,81.82
2023-11-12T13:04:51.779Z,81.99
2023-11-12T13:07:22.670Z,82.24
2023-11-12T13:09:51.243Z,82.53
2023-11-12T13:12:19.149Z,82.68
2023-11-12T13:14:48.451Z,82.50
2023-11-12T13:17:16.821Z,82.89
2023-11-12T13:19:45.720Z,84.29
2023-11-12T13:22:13.374Z,84.75
2023-11-12T13:24:44.353Z,85.34
2023-11-12T13:27:12.187Z,84.20
2023-11-12T13:29:41.938Z,84.95
2023-11-12T13:32:10.483Z,85.03
2023-11-12T13:34:39.186Z,85.05
2023-11-12T13:37:06.777Z,85.33
2023-11-12T13:39:34.520Z,86.60
2023-11-12T13:42:05.728Z,87.02
2023-11-12T13:44:35.603Z,87.05
2023-11-12T13:47:03.360Z,86.85
2023-11-12T13:49:31.548Z,87.42
2023-11-12T13:51:59.483Z,88.79
2023-11-12T13:54:27.143Z,89.19
2023-11-12T13:56:54.763Z,89.54
2023-11-12T13:59:23.697Z,90.59
2023-11-12T14:01:52.246Z,89.69
2023-11-12T14:04:20.053Z,89.92
2023-11-12T14:06:51.992Z,89.36
2023-11-12T14:09:20.198Z,90.56
2023-11-12T14:11:51.802Z,90.81
2023-11-12T14:14:19.677Z,90.07
2023-11-12T14:16:48.736Z,89.75
2023-11-12T14:19:16.547Z,89.54
2023-11-12T14:21:45.034Z,90.32
2023-11-12T14:24:13.436Z,90.51
2023-11-12T14:26:44.776Z,90.04
2023-11-12T14:29:13.544Z,90.37
2023-11-12T14:31:41.200Z,91.52
2023-11-12T14:34:14.184Z,92.03
2023-11-12T14:36:42.444Z,92.46
2023-11-12T14:39:12.122Z,92.56
2023-11-12T14:41:41.732Z,90.69
2023-11-12T14:44:09.856Z,90.65
2023-11-12T14:46:38.103Z,92.08
2023-11-12T14:49:07.487Z,93.05
2023-11-12T14:51:41.384Z,93.33
2023-11-12T14:54:09.325Z,93.10
2023-11-12T14:56:37.461Z,93.26
2023-11-12T14:59:05.939Z,92.47
2023-11-12T15:01:33.638Z,92.57
2023-11-12T15:04:01.658Z,91.50
2023-11-12T15:06:29.383Z,93.01
2023-11-12T15:08:58.375Z,92.50
2023-11-12T15:11:26.078Z,93.34
2023-11-12T15:13:54.370Z,94.25
2023-11-12T15:16:24.642Z,94.94
2023-11-12T15:18:52.873Z,95.47
2023-11-12T15:21:21.119Z,95.99
2023-11-12T15:23:48.974Z,96.88
2023-11-12T15:26:18.185Z,98.40
2023-11-12T15:28:47.421Z,100.00
2023-11-12T15:31:16.052Z,100.00
2023-11-12T15:33:43.777Z,100.00
2023-11-12T15:36:11.663Z,100.00
2023-11-12T15:38:39.356Z,100.00
2023-11-12T15:41:07.381Z,100.00
2023-11-12T15:43:36.449Z,100.00
2023-11-12T15:46:06.407Z,100.00
2023-11-12T15:48:34.305Z,100.00
2023-11-12T15:51:02.373Z,100.00
2023-11-12T15:53:32.600Z,100.00
2023-11-12T15:56:00.941Z,100.00
2023-11-12T15:58:29.398Z,100.00
2023-11-12T16:00:58.722Z,100.00
2023-11-12T16:03:26.824Z,100.00
2023-11-12T16:05:54.654Z,100.00
2023-11-12T16:08:22.900Z,100.00
2023-11-12T16:10:50.490Z,100.00
2023-11-12T16:13:18.983Z,100.00
2023-11-12T16:15:46.629Z,100.00
2023-11-12T16:18:15.572Z,100.00
2023-11-12T16:20:43.221Z,100.00
2023-11-12T16:23:11.238Z,100.00
2023-11-12T16:25:38.925Z,100.00
2023-11-12T16:28:06.932Z,100.00
2023-11-12T16:30:35.213Z,100.00
2023-11-12T16:33:02.882Z,100.00
2023-11-12T16:35:33.274Z,100.00
2023-11-12T16:38:05.132Z,100.00
2023-11-12T16:40:35.227Z,100.00
2023-11-12T16:43:04.362Z,100.00
2023-11-12T16:45:32.635Z,100.00
2023-11-12T16:48:01.098Z,100.00
2023-11-12T16:50:29.450Z,100.00
2023-11-12T16:52:58.408Z,100.00
2023-11-12T16:55:26.208Z,100.00
2023-11-12T16:57:53.942Z,100.00
2023-11-12T17:00:22.992Z,100.00
2023-11-12T17:02:50.860Z,100.00
2023-11-12T17:05:20.331Z,100.00
2023-11-12T17:07:48.146Z,100.00
2023-11-12T17:10:17.284Z,100.00
2023-11-12T17:12:44.982Z,100.00
2023-11-12T17:15:12.986Z,100.00
2023-11-12T17:17:42.011Z,100.00
2023-11-12T17:20:13.999Z,100.00
2023-11-12T17:22:42.521Z,100.00
2023-11-12T17:25:11.170Z,100.00
2023-11-12T17:27:40.515Z,100.00
2023-11-12T17:30:09.397Z,100.00
2023-11-12T17:32:38.848Z,100.00
2023-11-12T17:35:08.519Z,100.00
2023-11-12T17:37:36.329Z,100.00
2023-11-12T17:40:04.431Z,100.00
2023-11-12T17:42:32.218Z,100.00
2023-11-12T17:45:03.357Z,100.00
2023-11-12T17:47:31.003Z,100.00
2023-11-12T17:49:58.992Z,100.00
2023-11-12T17:52:26.959Z,100.00
2023-11-12T17:54:57.285Z,100.00
2023-11-12T17:57:28.441Z,100.00
2023-11-12T17:59:56.146Z,100.00
2023-11-12T18:02:26.225Z,100.00
2023-11-12T18:04:54.020Z,100.00
2023-11-12T18:07:21.752Z,100.00
2023-11-12T18:09:49.382Z,100.00
2023-11-12T18:12:16.978Z,100.00
2023-11-12T18:14:44.627Z,100.00
2023-11-12T18:17:12.938Z,100.00
2023-11-12T18:19:42.113Z,100.00
2023-11-12T18:22:10.657Z,100.00
2023-11-12T18:24:38.599Z,100.00
2023-11-12T18:27:06.413Z,100.00
2023-11-12T18:29:36.059Z,100.00
2023-11-12T18:32:04.916Z,100.00
2023-11-12T18:34:33.519Z,100.00
2023-11-12T18:37:02.626Z,100.00
2023-11-12T18:39:31.106Z,100.00
2023-11-12T18:41:58.722Z,100.00
2023-11-12T18:44:26.277Z,100.00
2023-11-12T18:46:54.314Z,100.00
2023-11-12T18:49:23.078Z,100.00
2023-11-12T18:51:51.235Z,100.00
2023-11-12T18:54:20.752Z,100.00
2023-11-12T18:56:48.557Z,100.00
2023-11-12T18:59:16.942Z,100.00
2023-11-12T19:01:44.678Z,100.00
2023-11-12T19:04:12.445Z,100.00
2023-11-12T19:06:41.512Z,100.00
2023-11-12T19:09:10.240Z,100.00
2023-11-12T19:11:39.187Z,100.00
2023-11-12T19:14:08.240Z,100.00
2023-11-12T19:16:36.875Z,100.00
2023-11-12T19:19:05.419Z,100.00
2023-11-12T19:21:36.195Z,100.00
2023-11-12T19:24:07.541Z,100.00
2023-11-12T19:26:36.027Z,100.00
2023-11-12T19:29:05.001Z,100.00
2023-11-12T19:31:34.377Z,100.00
2023-11-12T19:34:02.349Z,100.00
2023-11-12T19:36:30.129Z,100.00
2023-11-12T19:38:57.820Z,100.00
2023-11-12T19:41:25.478Z,100.00
2023-11-12T19:43:54.432Z,100.00
2023-11-12T19:46:23.673Z,100.00
2023-11-12T19:48:54.096Z,100.00
2023-11-12T19:51:22.362Z,100.00
2023-11-12T19:53:50.076Z,100.00
2023-11-12T19:56:18.246Z,100.00
2023-11-12T19:58:47.245Z,100.00
2023-11-12T20:01:16.133Z,100.00
2023-11-12T20:03:46.324Z,100.00
2023-11-12T20:06:14.760Z,100.00
2023-11-12T20:08:42.482Z,100.00
2023-11-12T20:11:10.152Z,100.00
2023-11-12T20:13:40.098Z,100.00
2023-11-12T20:16:10.350Z,100.00
2023-11-12T20:18:38.358Z,100.00
2023-11-12T20:21:10.610Z,100.00
2023-11-12T20:23:38.438Z,100.00
2023-11-12T20:26:06.589Z,100.00
2023-11-12T20:28:34.544Z,100.00
2023-11-12T20:31:03.987Z,100.00
2023-11-12T20:33:31.654Z,100.00
2023-11-12T20:36:00.204Z,100.00
2023-11-12T20:38:29.189Z,100.00
2023-11-12T20:40:56.886Z,100.00
2023-11-12T20:43:24.881Z,100.00
2023-11-12T20:45:54.480Z,100.00
2023-11-12T20:48:22.154Z,100.00
2023-11-12T20:50:49.849Z,100.00
2023-11-12T20:53:17.467Z,100.00
2023-11-12T20:55:46.483Z,100.00
2023-11-12T20:58:14.106Z,100.00
2023-11-12T21:00:44.341Z,100.00
2023-11-12T21:03:12.087Z,100.00
2023-11-12T21:05:39.763Z,100.00
2023-11-12T21:08:07.368Z,100.00
2023-11-12T21:10:36.652Z,100.00
2023-11-12T21:13:05.946Z,100.00
2023-11-12T21:15:33.583Z,100.00
2023-11-12T21:18:01.509Z,100.00
2023-11-12T21:20:29.595Z,100.00
2023-11-12T21:22:59.043Z,100.00
2023-11-12T21:25:28.154Z,100.00
2023-11-12T21:27:55.835Z,100.00
2023-11-12T21:30:27.186Z,100.00
2023-11-12T21:32:58.127Z,100.00
2023-11-12T21:35:26.179Z,100.00
2023-11-12T21:37:54.008Z,100.00
2023-11-12T21:40:22.671Z,100.00
2023-11-12T21:42:50.944Z,100.00
2023-11-12T21:45:18.564Z,100.00
2023-11-12T21:47:47.481Z,100.00
2023-11-12T21:50:17.056Z,100.00
2023-11-12T21:52:45.225Z,100.00
2023-11-12T21:55:12.856Z,100.00
2023-11-12T21:57:40.541Z,100.00
2023-11-12T22:00:12.628Z,100.00
2023-11-12T22:02:41.303Z,100.00
2023-11-12T22:05:11.117Z,100.00
2023-11-12T22:07:39.383Z,100.00
2023-11-12T22:10:10.717Z,100.00
2023-11-12T22:12:39.684Z,100.00
2023-11-12T22:15:09.995Z,100.00
2023-11-12T22:17:37.929Z,100.00
2023-11-12T22:20:07.086Z,100.00
2023-11-12T22:22:35.022Z,100.00
2023-11-12T22:25:11.375Z,100.00
2023-11-12T22:27:43.403Z,100.00
2023-11-12T22:30:13.017Z,100.00
2023-11-12T22:32:40.699Z,100.00
2023-11-12T22:35:09.745Z,100.00
2023-11-12T22:37:38.695Z,100.00
2023-11-12T22:40:08.250Z,100.00
2023-11-12T22:42:36.466Z,100.00
2023-11-12T22:45:04.371Z,100.00
2023-11-12T22:47:32.698Z,100.00
2023-11-12T22:50:00.477Z,100.00
2023-11-12T22:52:28.617Z,100.00
2023-11-12T22:54:57.636Z,100.00
2023-11-12T22:57:26.178Z,100.00
2023-11-12T22:59:53.808Z,100.00
2023-11-12T23:02:22.015Z,100.00
2023-11-12T23:04:49.953Z,100.00
2023-11-12T23:07:18.808Z,100.00
2023-11-12T23:09:46.703Z,100.00
2023-11-12T23:12:19.650Z,100.00
2023-11-12T23:14:47.311Z,100.00
2023-11-12T23:17:15.055Z,100.00
2023-11-12T23:19:43.007Z,100.00
2023-11-12T23:22:10.647Z,100.00
2023-11-12T23:24:38.317Z,100.00
2023-11-12T23:27:06.021Z,100.00
2023-11-12T23:29:35.901Z,100.00
2023-11-12T23:32:07.454Z,100.00
2023-11-12T23:34:37.111Z,100.00
2023-11-12T23:37:07.641Z,100.00
2023-11-12T23:39:36.818Z,100.00
2023-11-12T23:42:05.113Z,100.00
2023-11-12T23:44:32.682Z,100.00
2023-11-12T23:47:01.673Z,100.00
2023-11-12T23:49:29.360Z,100.00
2023-11-12T23:51:58.346Z,100.00
2023-11-12T23:54:26.043Z,100.00
2023-11-12T23:56:55.017Z,100.00
2023-11-12T23:59:22.932Z,100.00
